createdAt,value
2023-04-13T00:02:40.403Z,39.85
2023-04-13T00:06:42.783Z,38.47
2023-04-13T00:10:46.131Z,37.28
2023-04-13T00:14:50.797Z,39.75
2023-04-13T00:18:52.449Z,40.03
2023-04-13T00:22:54.462Z,35.35
2023-04-13T00:26:57.184Z,41.30
2023-04-13T00:30:59.559Z,37.50
2023-04-13T00:35:02.034Z,37.42
2023-04-13T00:39:04.855Z,37.15
2023-04-13T00:43:06.956Z,36.38
2023-04-13T00:47:09.100Z,39.63
2023-04-13T00:51:13.637Z,40.05
2023-04-13T00:55:20.848Z,37.75
2023-04-13T00:59:23.554Z,38.58
2023-04-13T01:03:29.859Z,38.38
2023-04-13T01:07:59.490Z,34.25
2023-04-13T01:12:47.089Z,35.40
2023-04-13T01:16:56.916Z,34.38
2023-04-13T01:21:00.587Z,36.97
2023-04-13T01:25:22.363Z,35.30
2023-04-13T01:29:27.134Z,34.95
2023-04-13T01:33:30.809Z,36.78
2023-04-13T01:37:33.982Z,40.00
2023-04-13T01:41:36.451Z,38.20
2023-04-13T01:45:47.679Z,37.28
2023-04-13T01:49:57.777Z,40.10
2023-04-13T01:54:16.540Z,36.80
2023-04-13T01:58:23.501Z,38.28
2023-04-13T02:02:32.807Z,38.22
2023-04-13T02:06:36.961Z,38.47
2023-04-13T02:10:42.877Z,34.57
2023-04-13T02:14:46.130Z,36.28
2023-04-13T02:18:49.237Z,35.95
2023-04-13T02:22:51.374Z,36.80
2023-04-13T02:26:53.378Z,40.50
2023-04-13T02:30:57.031Z,39.03
2023-04-13T02:35:02.284Z,36.15
2023-04-13T02:39:05.039Z,36.40
2023-04-13T02:43:10.058Z,38.50
2023-04-13T02:47:13.675Z,37.10
2023-04-13T02:51:16.062Z,41.72
2023-04-13T02:55:19.044Z,41.92
2023-04-13T02:59:30.805Z,38.08
2023-04-13T03:03:33.563Z,35.97
2023-04-13T03:07:36.548Z,40.80
2023-04-13T03:11:40.187Z,37.53
2023-04-13T03:15:56.092Z,34.90
2023-04-13T03:20:00.874Z,37.22
2023-04-13T03:24:02.981Z,38.25
2023-04-13T03:28:06.104Z,37.95
2023-04-13T03:36:21.350Z,36.95
2023-04-13T03:40:24.326Z,37.80
2023-04-13T03:44:28.051Z,35.58
2023-04-13T03:48:30.874Z,38.97
2023-04-13T03:52:35.237Z,36.53
2023-04-13T03:56:38.827Z,40.25
2023-04-13T04:00:43.408Z,39.88
2023-04-13T04:05:06.042Z,39.47
2023-04-13T04:09:10.183Z,39.97
2023-04-13T04:13:17.368Z,39.55
2023-04-13T04:17:23.972Z,40.72
2023-04-13T04:21:33.868Z,42.10
2023-04-13T04:25:40.529Z,48.45
2023-04-13T04:29:49.115Z,49.08
2023-04-13T04:34:02.426Z,50.53
2023-04-13T04:38:09.248Z,61.92
2023-04-13T04:42:12.685Z,61.47
2023-04-13T04:46:16.197Z,57.90
2023-04-13T04:50:24.266Z,60.35
2023-04-13T04:54:33.415Z,58.85
2023-04-13T04:58:35.945Z,55.00
2023-04-13T05:02:38.246Z,52.65
2023-04-13T05:06:44.676Z,51.05
2023-04-13T05:10:51.903Z,53.70
2023-04-13T05:14:54.830Z,50.13
2023-04-13T05:18:57.305Z,46.75
2023-04-13T05:23:19.495Z,50.05
2023-04-13T05:27:28.403Z,47.17
2023-04-13T05:31:31.489Z,50.45
2023-04-13T05:35:33.824Z,45.28
2023-04-13T05:39:37.907Z,46.35
2023-04-13T05:43:40.805Z,47.95
2023-04-13T05:47:45.241Z,47.53
2023-04-13T05:51:49.835Z,44.88
2023-04-13T05:55:53.152Z,44.58
2023-04-13T05:59:55.628Z,41.47
2023-04-13T06:04:03.774Z,41.30
2023-04-13T06:08:10.419Z,37.13
2023-04-13T06:12:14.012Z,38.22
2023-04-13T06:16:16.101Z,36.90
2023-04-13T06:20:18.575Z,31.63
2023-04-13T06:24:20.989Z,32.13
2023-04-13T06:28:28.933Z,31.52
2023-04-13T06:32:32.889Z,30.52
2023-04-13T06:36:35.734Z,27.27
2023-04-13T06:40:38.740Z,25.15
2023-04-13T06:44:43.795Z,21.17
2023-04-13T06:48:46.782Z,20.80
2023-04-13T06:52:50.883Z,19.60
2023-04-13T06:56:53.087Z,19.65
2023-04-13T07:00:55.208Z,15.68
2023-04-13T07:04:59.133Z,17.25
2023-04-13T07:09:02.454Z,17.75
2023-04-13T07:13:07.529Z,18.55
2023-04-13T07:17:11.345Z,19.55
2023-04-13T07:21:15.372Z,18.52
2023-04-13T07:25:30.911Z,17.08
2023-04-13T07:29:32.843Z,17.67
2023-04-13T07:33:39.216Z,16.80
2023-04-13T07:37:42.496Z,17.75
2023-04-13T07:41:46.474Z,17.88
2023-04-13T07:45:52.931Z,17.60
2023-04-13T07:49:55.634Z,16.98
2023-04-13T07:53:58.674Z,17.08
2023-04-13T07:58:03.718Z,16.50
2023-04-13T08:02:07.242Z,16.48
2023-04-13T08:06:12.591Z,15.75
2023-04-13T08:10:15.166Z,17.38
2023-04-13T08:14:17.422Z,16.70
2023-04-13T08:18:24.110Z,17.15
2023-04-13T08:22:26.261Z,15.30
2023-04-13T08:26:29.061Z,15.32
2023-04-13T08:30:35.541Z,15.93
2023-04-13T08:34:38.643Z,16.08
2023-04-13T08:38:40.995Z,14.52
2023-04-13T08:42:43.522Z,14.25
2023-04-13T08:46:46.681Z,13.85
2023-04-13T08:50:56.882Z,14.80
2023-04-13T08:55:02.345Z,14.38
2023-04-13T08:59:07.529Z,15.80
2023-04-13T09:03:14.109Z,14.55
2023-04-13T09:07:26.711Z,14.93
2023-04-13T09:11:32.801Z,14.50
2023-04-13T09:15:38.981Z,14.98
2023-04-13T09:19:57.302Z,15.30
2023-04-13T09:23:59.761Z,15.95
2023-04-13T09:28:01.802Z,15.52
2023-04-13T09:32:06.688Z,14.38
2023-04-13T09:36:10.548Z,13.93
2023-04-13T09:40:14.622Z,14.15
2023-04-13T09:44:22.209Z,13.57
2023-04-13T09:48:24.519Z,13.35
2023-04-13T09:52:26.667Z,13.65
2023-04-13T09:56:29.187Z,13.68
2023-04-13T10:00:31.883Z,14.40
2023-04-13T10:04:34.940Z,13.15
2023-04-13T10:08:41.948Z,13.25
2023-04-13T10:12:52.804Z,13.73
2023-04-13T10:17:05.762Z,13.63
2023-04-13T10:21:10.066Z,12.43
2023-04-13T10:25:29.173Z,12.73
2023-04-13T10:29:35.322Z,12.23
2023-04-13T10:33:50.858Z,12.30
2023-04-13T10:37:59.325Z,11.88
2023-04-13T10:42:02.458Z,10.88
2023-04-13T10:46:13.940Z,11.38
2023-04-13T10:50:24.318Z,10.75
2023-04-13T10:54:27.409Z,11.80
2023-04-13T10:58:33.215Z,10.77
2023-04-13T11:02:35.976Z,10.77
2023-04-13T11:06:38.950Z,10.38
2023-04-13T11:10:41.660Z,10.73
2023-04-13T11:14:50.821Z,9.77
2023-04-13T11:19:04.297Z,10.30
2023-04-13T11:23:18.055Z,10.32
2023-04-13T11:27:21.789Z,8.65
2023-04-13T11:31:39.095Z,8.18
2023-04-13T11:35:49.773Z,7.75
2023-04-13T11:39:52.224Z,7.53
2023-04-13T11:43:54.643Z,6.88
2023-04-13T11:47:57.636Z,6.15
2023-04-13T11:52:01.727Z,7.00
2023-04-13T11:56:04.375Z,7.20
2023-04-13T12:00:16.441Z,5.93
2023-04-13T12:04:18.975Z,6.00
2023-04-13T12:08:26.078Z,6.07
2023-04-13T12:12:51.311Z,5.47
2023-04-13T12:21:01.240Z,4.93
2023-04-13T12:25:24.421Z,5.00
2023-04-13T12:29:26.954Z,5.38
2023-04-13T12:33:29.014Z,7.75
2023-04-13T12:37:31.053Z,6.97
2023-04-13T12:41:33.524Z,6.68
2023-04-13T12:45:35.514Z,7.05
2023-04-13T12:49:37.616Z,6.75
2023-04-13T12:53:39.604Z,4.90
2023-04-13T12:57:41.725Z,5.85
2023-04-13T13:01:43.761Z,6.55
2023-04-13T13:05:45.891Z,5.35
2023-04-13T13:09:47.801Z,4.75
2023-04-13T13:13:49.922Z,5.03
2023-04-13T13:17:51.991Z,4.88
2023-04-13T13:21:54.489Z,5.57
2023-04-13T13:26:17.862Z,4.90
2023-04-13T13:30:18.745Z,5.60
2023-04-13T13:34:21.036Z,5.35
2023-04-13T13:38:23.140Z,4.85
2023-04-13T13:42:25.278Z,4.80
2023-04-13T13:46:27.868Z,4.80
2023-04-13T13:50:31.615Z,4.47
2023-04-13T13:54:36.847Z,3.50
2023-04-13T13:58:38.963Z,3.75
2023-04-13T14:02:41.397Z,4.38
2023-04-13T14:06:43.435Z,4.22
2023-04-13T14:10:48.660Z,4.20
2023-04-13T14:14:50.856Z,3.95
2023-04-13T14:18:53.247Z,4.03
2023-04-13T14:22:55.484Z,4.10
2023-04-13T14:26:57.825Z,4.43
2023-04-13T14:30:59.863Z,3.65
2023-04-13T14:35:02.199Z,3.30
2023-04-13T14:39:05.273Z,3.65
2023-04-13T14:43:07.916Z,3.30
2023-04-13T14:47:12.221Z,4.07
2023-04-13T14:51:17.461Z,4.00
2023-04-13T14:55:19.720Z,3.80
2023-04-13T14:59:22.139Z,4.40
2023-04-13T15:03:24.460Z,4.43
2023-04-13T15:07:29.933Z,3.55
2023-04-13T15:11:32.234Z,3.45
2023-04-13T15:15:36.836Z,4.10
2023-04-13T15:19:38.822Z,3.72
2023-04-13T15:23:44.192Z,3.40
2023-04-13T15:27:56.737Z,3.53
2023-04-13T15:32:00.401Z,3.33
2023-04-13T15:36:02.743Z,4.05
2023-04-13T15:40:07.896Z,3.70
2023-04-13T15:44:11.070Z,3.65
2023-04-13T15:48:13.423Z,3.83
2023-04-13T15:52:15.482Z,4.18
2023-04-13T15:56:17.675Z,4.15
2023-04-13T16:00:20.701Z,5.15
2023-04-13T16:04:23.611Z,4.35
2023-04-13T16:08:25.943Z,4.68
2023-04-13T16:12:32.320Z,5.80
2023-04-13T16:16:46.580Z,4.72
2023-04-13T16:20:49.834Z,5.13
2023-04-13T16:24:51.832Z,6.32
2023-04-13T16:28:54.411Z,6.45
2023-04-13T16:32:56.666Z,5.68
2023-04-13T16:36:58.995Z,7.38
2023-04-13T16:41:01.636Z,6.72
2023-04-13T16:45:03.833Z,7.03
2023-04-13T16:49:06.218Z,8.32
2023-04-13T16:53:08.251Z,8.15
2023-04-13T16:57:10.191Z,7.45
2023-04-13T17:01:12.491Z,8.68
2023-04-13T17:05:15.102Z,8.13
2023-04-13T17:09:17.088Z,8.23
2023-04-13T17:13:19.181Z,8.57
2023-04-13T17:17:21.304Z,8.43
2023-04-13T17:21:23.722Z,9.02
2023-04-13T17:25:26.044Z,8.77
2023-04-13T17:29:28.618Z,9.20
2023-04-13T17:33:30.781Z,9.77
2023-04-13T17:37:33.051Z,10.20
2023-04-13T17:41:35.440Z,9.75
2023-04-13T17:45:40.368Z,9.52
2023-04-13T17:49:43.702Z,10.10
2023-04-13T17:53:46.025Z,10.50
2023-04-13T17:57:48.450Z,10.52
2023-04-13T18:01:53.710Z,10.73
2023-04-13T18:05:56.533Z,12.65
2023-04-13T18:09:58.573Z,13.25
2023-04-13T18:14:02.814Z,12.95
2023-04-13T18:18:05.696Z,15.55
2023-04-13T18:22:08.157Z,17.67
2023-04-13T18:26:17.490Z,18.63
2023-04-13T18:30:20.993Z,26.30
2023-04-13T18:34:23.302Z,36.58
2023-04-13T18:38:25.882Z,62.28
2023-04-13T18:42:28.228Z,70.25
2023-04-13T18:46:30.585Z,56.60
2023-04-13T18:50:32.604Z,43.08
2023-04-13T18:54:34.830Z,36.20
2023-04-13T18:58:37.363Z,29.92
2023-04-13T19:02:41.390Z,27.98
2023-04-13T19:06:44.363Z,27.02
2023-04-13T19:10:46.630Z,27.25
2023-04-13T19:14:48.907Z,27.63
2023-04-13T19:18:51.239Z,28.85
2023-04-13T19:22:53.631Z,29.63
2023-04-13T19:26:56.637Z,30.23
2023-04-13T19:30:58.978Z,29.50
2023-04-13T19:35:01.247Z,27.38
2023-04-13T19:39:08.161Z,27.80
2023-04-13T19:43:10.671Z,28.85
2023-04-13T19:47:12.648Z,26.25
2023-04-13T19:51:14.814Z,25.80
2023-04-13T19:55:16.858Z,27.02
2023-04-13T19:59:19.000Z,25.33
2023-04-13T20:03:21.138Z,26.40
2023-04-13T20:07:23.586Z,25.45
2023-04-13T20:11:25.828Z,25.98
2023-04-13T20:15:31.000Z,24.15
2023-04-13T20:19:36.248Z,24.60
2023-04-13T20:23:38.272Z,25.08
2023-04-13T20:27:42.112Z,25.05
2023-04-13T20:31:44.635Z,22.63
2023-04-13T20:35:46.604Z,24.77
2023-04-13T20:39:53.029Z,21.95
2023-04-13T20:43:55.475Z,22.33
2023-04-13T20:52:24.207Z,23.98
2023-04-13T20:56:26.446Z,23.58
2023-04-13T21:00:28.578Z,25.05
2023-04-13T21:04:31.020Z,22.25
2023-04-13T21:08:33.202Z,23.30
2023-04-13T21:12:35.729Z,23.67
2023-04-13T21:16:37.765Z,23.50
2023-04-13T21:20:40.967Z,24.70
2023-04-13T21:24:42.948Z,25.45
2023-04-13T21:28:45.006Z,26.05
2023-04-13T21:32:47.021Z,24.30
2023-04-13T21:36:52.010Z,25.42
2023-04-13T21:40:54.173Z,23.05
2023-04-13T21:44:57.129Z,23.52
2023-04-13T21:48:59.458Z,21.45
2023-04-13T21:53:01.652Z,21.70
2023-04-13T21:57:04.495Z,23.17
2023-04-13T22:01:07.297Z,21.58
2023-04-13T22:05:11.426Z,22.23
2023-04-13T22:09:13.774Z,18.77
2023-04-13T22:13:15.974Z,19.42
2023-04-13T22:17:17.511Z,19.67
2023-04-13T22:21:19.506Z,18.90
2023-04-13T22:25:25.232Z,17.48
2023-04-13T22:29:27.200Z,18.33
2023-04-13T22:33:31.914Z,17.48
2023-04-13T22:37:35.408Z,18.60
2023-04-13T22:41:37.381Z,17.90
2023-04-13T22:45:39.364Z,18.88
2023-04-13T22:49:41.495Z,18.08
2023-04-13T22:53:43.468Z,16.55
2023-04-13T22:57:45.538Z,17.80
2023-04-13T23:01:47.673Z,16.50
2023-04-13T23:05:49.817Z,17.40
2023-04-13T23:09:53.182Z,18.15
2023-04-13T23:13:55.395Z,17.90
2023-04-13T23:17:57.345Z,18.67
2023-04-13T23:21:59.401Z,19.10
2023-04-13T23:26:01.584Z,19.13
2023-04-13T23:30:04.388Z,18.85
2023-04-13T23:34:06.417Z,19.25
2023-04-13T23:38:08.573Z,18.05
2023-04-13T23:42:10.566Z,18.60
2023-04-13T23:46:13.158Z,19.65
2023-04-13T23:50:17.833Z,19.63
2023-04-13T23:54:19.947Z,17.98
2023-04-13T23:58:21.882Z,20.25
